sensor_id;sensor_type;location;lat;lon;timestamp;pressure;altitude;pressure_sealevel;temperature;humidity
15694;BME280;7947;48.834;9.132;2023-02-23T00:00:59;97866.97;;;9.48;81.21
15694;BME280;7947;48.834;9.132;2023-02-23T00:04:04;97871.78;;;9.46;80.89
15694;BME280;7947;48.834;9.132;2023-02-23T00:07:07;97868.28;;;9.51;81.36
15694;BME280;7947;48.834;9.132;2023-02-23T00:10:13;97863.69;;;9.61;81.49
15694;BME280;7947;48.834;9.132;2023-02-23T00:13:18;97873.31;;;9.67;82.11
15694;BME280;7947;48.834;9.132;2023-02-23T00:16:23;97854.81;;;9.71;82.03
15694;BME280;7947;48.834;9.132;2023-02-23T00:19:27;97853.47;;;9.73;81.55
15694;BME280;7947;48.834;9.132;2023-02-23T00:22:33;97859.06;;;9.77;81.84
15694;BME280;7947;48.834;9.132;2023-02-23T00:25:37;97853.19;;;9.75;81.51
15694;BME280;7947;48.834;9.132;2023-02-23T00:28:41;97849.97;;;9.73;82.06
15694;BME280;7947;48.834;9.132;2023-02-23T00:31:45;97854.81;;;9.66;82.70
15694;BME280;7947;48.834;9.132;2023-02-23T00:34:49;97853.19;;;9.70;82.19
15694;BME280;7947;48.834;9.132;2023-02-23T00:37:52;97856.44;;;9.67;82.38
15694;BME280;7947;48.834;9.132;2023-02-23T00:40:55;97854.81;;;9.66;83.33
15694;BME280;7947;48.834;9.132;2023-02-23T00:43:59;97859.91;;;9.62;84.26
15694;BME280;7947;48.834;9.132;2023-02-23T00:47:02;97855.66;;;9.56;84.68
15694;BME280;7947;48.834;9.132;2023-02-23T00:50:07;97856.50;;;9.52;85.65
15694;BME280;7947;48.834;9.132;2023-02-23T00:53:13;97859.66;;;9.64;86.39
15694;BME280;7947;48.834;9.132;2023-02-23T00:56:16;97853.78;;;9.62;86.56
15694;BME280;7947;48.834;9.132;2023-02-23T00:59:19;97851.66;;;9.59;86.64
15694;BME280;7947;48.834;9.132;2023-02-23T01:02:22;97848.69;;;9.60;87.01
15694;BME280;7947;48.834;9.132;2023-02-23T01:05:26;97847.91;;;9.55;87.65
15694;BME280;7947;48.834;9.132;2023-02-23T01:08:29;97847.91;;;9.55;88.02
15694;BME280;7947;48.834;9.132;2023-02-23T01:11:32;97849.53;;;9.51;88.01
15694;BME280;7947;48.834;9.132;2023-02-23T01:14:35;97845.03;;;9.46;88.80
15694;BME280;7947;48.834;9.132;2023-02-23T01:17:38;97842.88;;;9.48;89.40
15694;BME280;7947;48.834;9.132;2023-02-23T01:20:43;97842.34;;;9.46;89.76
15694;BME280;7947;48.834;9.132;2023-02-23T01:23:47;97848.53;;;9.37;89.53
15694;BME280;7947;48.834;9.132;2023-02-23T01:26:50;97847.72;;;9.31;90.17
15694;BME280;7947;48.834;9.132;2023-02-23T01:29:52;97850.16;;;9.28;90.02
15694;BME280;7947;48.834;9.132;2023-02-23T01:32:55;97848.28;;;9.28;90.26
15694;BME280;7947;48.834;9.132;2023-02-23T01:35:59;97843.97;;;9.37;90.39
15694;BME280;7947;48.834;9.132;2023-02-23T01:39:03;97843.69;;;9.44;89.84
15694;BME280;7947;48.834;9.132;2023-02-23T01:42:09;97835.66;;;9.44;89.88
15694;BME280;7947;48.834;9.132;2023-02-23T01:45:21;97840.44;;;9.47;90.72
15694;BME280;7947;48.834;9.132;2023-02-23T01:48:27;97838.56;;;9.52;90.84
15694;BME280;7947;48.834;9.132;2023-02-23T01:51:38;97836.97;;;9.51;90.58
15694;BME280;7947;48.834;9.132;2023-02-23T01:54:46;97832.41;;;9.52;90.71
15694;BME280;7947;48.834;9.132;2023-02-23T01:57:54;97829.19;;;9.55;91.33
15694;BME280;7947;48.834;9.132;2023-02-23T02:00:58;97827.03;;;9.57;91.65
15694;BME280;7947;48.834;9.132;2023-02-23T02:04:03;97827.28;;;9.60;91.08
15694;BME280;7947;48.834;9.132;2023-02-23T02:07:08;97820.63;;;9.53;90.95
15694;BME280;7947;48.834;9.132;2023-02-23T02:10:12;97825.25;;;9.37;91.02
15694;BME280;7947;48.834;9.132;2023-02-23T02:13:34;97820.16;;;9.36;91.77
15694;BME280;7947;48.834;9.132;2023-02-23T02:24:12;97820.19;;;9.31;92.39
15694;BME280;7947;48.834;9.132;2023-02-23T02:27:33;97814.28;;;9.34;92.63
15694;BME280;7947;48.834;9.132;2023-02-23T02:35:01;97812.66;;;9.38;92.23
15694;BME280;7947;48.834;9.132;2023-02-23T02:38:18;97815.34;;;9.38;92.89
15694;BME280;7947;48.834;9.132;2023-02-23T02:41:33;97817.22;;;9.42;92.60
15694;BME280;7947;48.834;9.132;2023-02-23T02:44:41;97812.09;;;9.46;92.38
15694;BME280;7947;48.834;9.132;2023-02-23T02:47:55;97806.75;;;9.46;92.44
15694;BME280;7947;48.834;9.132;2023-02-23T02:51:05;97805.66;;;9.47;92.65
15694;BME280;7947;48.834;9.132;2023-02-23T02:54:16;97802.16;;;9.51;93.17
15694;BME280;7947;48.834;9.132;2023-02-23T02:57:25;97797.06;;;9.55;92.93
15694;BME280;7947;48.834;9.132;2023-02-23T03:00:35;97796.00;;;9.51;93.08
15694;BME280;7947;48.834;9.132;2023-02-23T03:03:55;97793.31;;;9.56;93.03
15694;BME280;7947;48.834;9.132;2023-02-23T03:07:22;97798.94;;;9.54;92.75
15694;BME280;7947;48.834;9.132;2023-02-23T03:10:55;97801.09;;;9.52;92.94
15694;BME280;7947;48.834;9.132;2023-02-23T03:14:25;97801.31;;;9.61;93.01
15694;BME280;7947;48.834;9.132;2023-02-23T03:17:52;97799.97;;;9.58;92.95
15694;BME280;7947;48.834;9.132;2023-02-23T03:21:22;97796.25;;;9.54;93.34
15694;BME280;7947;48.834;9.132;2023-02-23T03:24:48;97795.47;;;9.54;93.13
15694;BME280;7947;48.834;9.132;2023-02-23T03:28:17;97798.94;;;9.54;92.84
15694;BME280;7947;48.834;9.132;2023-02-23T03:31:45;97799.22;;;9.53;93.59
15694;BME280;7947;48.834;9.132;2023-02-23T03:35:11;97810.44;;;9.55;93.67
15694;BME280;7947;48.834;9.132;2023-02-23T03:38:37;97801.88;;;9.53;93.42
15694;BME280;7947;48.834;9.132;2023-02-23T03:42:02;97810.16;;;9.56;93.76
15694;BME280;7947;48.834;9.132;2023-02-23T03:45:26;97805.63;;;9.57;93.37
15694;BME280;7947;48.834;9.132;2023-02-23T03:48:49;97807.22;;;9.58;93.65
15694;BME280;7947;48.834;9.132;2023-02-23T03:52:14;97800.53;;;9.55;93.40
15694;BME280;7947;48.834;9.132;2023-02-23T03:55:39;97800.81;;;9.49;93.67
15694;BME280;7947;48.834;9.132;2023-02-23T03:59:02;97807.00;;;9.49;93.77
15694;BME280;7947;48.834;9.132;2023-02-23T04:02:26;97799.00;;;9.44;93.84
15694;BME280;7947;48.834;9.132;2023-02-23T04:05:49;97808.84;;;9.49;93.88
15694;BME280;7947;48.834;9.132;2023-02-23T04:09:12;97813.69;;;9.47;93.92
15694;BME280;7947;48.834;9.132;2023-02-23T04:12:34;97808.38;;;9.42;93.75
15694;BME280;7947;48.834;9.132;2023-02-23T04:16:00;97807.31;;;9.38;94.04
15694;BME280;7947;48.834;9.132;2023-02-23T04:19:05;97808.91;;;9.44;93.98
15694;BME280;7947;48.834;9.132;2023-02-23T04:22:08;97809.97;;;9.43;94.20
15694;BME280;7947;48.834;9.132;2023-02-23T04:25:12;97815.59;;;9.46;94.07
15694;BME280;7947;48.834;9.132;2023-02-23T04:28:18;97810.22;;;9.46;93.79
15694;BME280;7947;48.834;9.132;2023-02-23T04:31:20;97813.16;;;9.50;92.73
15694;BME280;7947;48.834;9.132;2023-02-23T04:34:27;97814.22;;;9.49;93.14
15694;BME280;7947;48.834;9.132;2023-02-23T04:37:29;97818.78;;;9.48;93.15
15694;BME280;7947;48.834;9.132;2023-02-23T04:40:32;97815.84;;;9.50;93.42
15694;BME280;7947;48.834;9.132;2023-02-23T04:43:35;97819.56;;;9.54;92.75
15694;BME280;7947;48.834;9.132;2023-02-23T04:46:38;97816.88;;;9.49;92.99
15694;BME280;7947;48.834;9.132;2023-02-23T04:49:43;97812.34;;;9.49;92.64
15694;BME280;7947;48.834;9.132;2023-02-23T04:52:45;97815.03;;;9.49;93.22
15694;BME280;7947;48.834;9.132;2023-02-23T04:55:49;97813.16;;;9.45;93.05
15694;BME280;7947;48.834;9.132;2023-02-23T04:58:52;97822.56;;;9.42;93.04
15694;BME280;7947;48.834;9.132;2023-02-23T05:01:54;97823.34;;;9.43;92.54
15694;BME280;7947;48.834;9.132;2023-02-23T05:04:58;97821.78;;;9.37;92.77
15694;BME280;7947;48.834;9.132;2023-02-23T05:08:01;97818.88;;;9.28;93.41
15694;BME280;7947;48.834;9.132;2023-02-23T05:11:05;97822.88;;;9.31;94.29
15694;BME280;7947;48.834;9.132;2023-02-23T05:14:08;97823.13;;;9.29;94.09
15694;BME280;7947;48.834;9.132;2023-02-23T05:17:11;97820.19;;;9.31;93.88
15694;BME280;7947;48.834;9.132;2023-02-23T05:20:15;97817.53;;;9.26;93.93
15694;BME280;7947;48.834;9.132;2023-02-23T05:23:18;97817.78;;;9.29;93.90
15694;BME280;7947;48.834;9.132;2023-02-23T05:26:20;97821.81;;;9.27;94.26
15694;BME280;7947;48.834;9.132;2023-02-23T05:29:23;97819.91;;;9.27;94.10
15694;BME280;7947;48.834;9.132;2023-02-23T05:32:26;97819.63;;;9.34;93.42
15694;BME280;7947;48.834;9.132;2023-02-23T05:35:30;97824.75;;;9.30;93.64
15694;BME280;7947;48.834;9.132;2023-02-23T05:38:33;97818.56;;;9.35;93.17
15694;BME280;7947;48.834;9.132;2023-02-23T05:41:36;97831.16;;;9.34;93.12
15694;BME280;7947;48.834;9.132;2023-02-23T05:44:39;97834.63;;;9.35;93.36
15694;BME280;7947;48.834;9.132;2023-02-23T05:47:42;97826.06;;;9.33;92.85
15694;BME280;7947;48.834;9.132;2023-02-23T05:50:46;97830.13;;;9.25;93.67
15694;BME280;7947;48.834;9.132;2023-02-23T05:53:48;97828.22;;;9.26;93.82
15694;BME280;7947;48.834;9.132;2023-02-23T05:56:51;97829.31;;;9.25;94.29
15694;BME280;7947;48.834;9.132;2023-02-23T05:59:54;97826.88;;;9.28;94.19
15694;BME280;7947;48.834;9.132;2023-02-23T06:02:57;97825.00;;;9.34;94.25
15694;BME280;7947;48.834;9.132;2023-02-23T06:06:01;97825.28;;;9.32;94.06
15694;BME280;7947;48.834;9.132;2023-02-23T06:09:03;97824.75;;;9.30;94.09
15694;BME280;7947;48.834;9.132;2023-02-23T06:12:07;97827.16;;;9.27;94.40
15694;BME280;7947;48.834;9.132;2023-02-23T06:15:10;97827.16;;;9.22;94.75
15694;BME280;7947;48.834;9.132;2023-02-23T06:18:13;97836.28;;;9.21;94.53
15694;BME280;7947;48.834;9.132;2023-02-23T06:21:17;97844.84;;;9.23;94.78
15694;BME280;7947;48.834;9.132;2023-02-23T06:24:20;97836.28;;;9.21;94.76
15694;BME280;7947;48.834;9.132;2023-02-23T06:27:24;97841.91;;;9.19;94.64
15694;BME280;7947;48.834;9.132;2023-02-23T06:30:27;97836.28;;;9.16;94.85
15694;BME280;7947;48.834;9.132;2023-02-23T06:33:30;97840.53;;;9.22;95.30
15694;BME280;7947;48.834;9.132;2023-02-23T06:36:34;97847.50;;;9.28;94.62
15694;BME280;7947;48.834;9.132;2023-02-23T06:39:36;97842.13;;;9.28;94.54
15694;BME280;7947;48.834;9.132;2023-02-23T06:42:39;97846.44;;;9.24;94.60
15694;BME280;7947;48.834;9.132;2023-02-23T06:45:42;97855.78;;;9.26;94.69
15694;BME280;7947;48.834;9.132;2023-02-23T06:48:44;97852.59;;;9.24;94.49
15694;BME280;7947;48.834;9.132;2023-02-23T06:51:49;97852.06;;;9.22;94.68
15694;BME280;7947;48.834;9.132;2023-02-23T06:54:52;97857.41;;;9.22;95.75
15694;BME280;7947;48.834;9.132;2023-02-23T06:57:55;97858.22;;;9.23;95.26
15694;BME280;7947;48.834;9.132;2023-02-23T07:00:57;97862.47;;;9.29;95.50
15694;BME280;7947;48.834;9.132;2023-02-23T07:04:00;97866.47;;;9.31;95.34
15694;BME280;7947;48.834;9.132;2023-02-23T07:07:05;97869.13;;;9.31;95.32
15694;BME280;7947;48.834;9.132;2023-02-23T07:10:09;97874.50;;;9.36;95.29
15694;BME280;7947;48.834;9.132;2023-02-23T07:13:12;97872.63;;;9.37;95.68
15694;BME280;7947;48.834;9.132;2023-02-23T07:16:14;97877.16;;;9.46;95.61
15694;BME280;7947;48.834;9.132;2023-02-23T07:19:17;97879.78;;;9.51;95.66
15694;BME280;7947;48.834;9.132;2023-02-23T07:22:21;97882.75;;;9.50;95.82
15694;BME280;7947;48.834;9.132;2023-02-23T07:25:25;97883.03;;;9.48;96.12
15694;BME280;7947;48.834;9.132;2023-02-23T07:28:28;97883.00;;;9.53;95.97
15694;BME280;7947;48.834;9.132;2023-02-23T07:31:31;97888.06;;;9.60;96.37
15694;BME280;7947;48.834;9.132;2023-02-23T07:34:33;97888.56;;;9.67;96.61
15694;BME280;7947;48.834;9.132;2023-02-23T07:37:38;97889.63;;;9.71;96.48
15694;BME280;7947;48.834;9.132;2023-02-23T07:40:42;97890.09;;;9.78;97.03
15694;BME280;7947;48.834;9.132;2023-02-23T07:43:45;97899.47;;;9.80;96.63
15694;BME280;7947;48.834;9.132;2023-02-23T07:46:47;97894.91;;;9.86;96.33
15694;BME280;7947;48.834;9.132;2023-02-23T07:49:50;97892.69;;;9.93;96.52
15694;BME280;7947;48.834;9.132;2023-02-23T07:52:55;97892.13;;;10.01;96.54
15694;BME280;7947;48.834;9.132;2023-02-23T07:55:57;97899.59;;;10.09;96.63
15694;BME280;7947;48.834;9.132;2023-02-23T07:59:01;97888.88;;;10.14;96.56
15694;BME280;7947;48.834;9.132;2023-02-23T08:02:04;97894.22;;;10.19;96.65
15694;BME280;7947;48.834;9.132;2023-02-23T08:05:07;97897.41;;;10.21;96.79
15694;BME280;7947;48.834;9.132;2023-02-23T08:08:11;97901.13;;;10.25;96.65
15694;BME280;7947;48.834;9.132;2023-02-23T08:11:14;97897.66;;;10.25;97.14
15694;BME280;7947;48.834;9.132;2023-02-23T08:14:17;97895.78;;;10.25;96.89
15694;BME280;7947;48.834;9.132;2023-02-23T08:17:24;97903.78;;;10.30;96.68
15694;BME280;7947;48.834;9.132;2023-02-23T08:20:27;97898.41;;;10.35;96.58
15694;BME280;7947;48.834;9.132;2023-02-23T08:23:33;97908.00;;;10.41;97.11
15694;BME280;7947;48.834;9.132;2023-02-23T08:26:36;97899.13;;;10.46;96.85
15694;BME280;7947;48.834;9.132;2023-02-23T08:29:39;97901.25;;;10.49;97.30
15694;BME280;7947;48.834;9.132;2023-02-23T08:32:41;97905.22;;;10.56;96.91
15694;BME280;7947;48.834;9.132;2023-02-23T08:35:44;97901.72;;;10.56;97.15
15694;BME280;7947;48.834;9.132;2023-02-23T08:38:48;97901.41;;;10.62;97.05
15694;BME280;7947;48.834;9.132;2023-02-23T08:41:51;97900.53;;;10.72;96.27
15694;BME280;7947;48.834;9.132;2023-02-23T08:44:56;97901.22;;;10.82;96.04
15694;BME280;7947;48.834;9.132;2023-02-23T08:47:59;97903.06;;;10.87;95.42
15694;BME280;7947;48.834;9.132;2023-02-23T08:51:02;97903.03;;;10.92;95.17
15694;BME280;7947;48.834;9.132;2023-02-23T08:54:06;97903.53;;;10.94;94.35
15694;BME280;7947;48.834;9.132;2023-02-23T08:57:14;97902.19;;;10.97;94.00
15694;BME280;7947;48.834;9.132;2023-02-23T09:00:19;97903.25;;;10.96;93.31
15694;BME280;7947;48.834;9.132;2023-02-23T09:03:22;97909.94;;;10.98;93.91
15694;BME280;7947;48.834;9.132;2023-02-23T09:06:26;97913.97;;;11.01;93.84
15694;BME280;7947;48.834;9.132;2023-02-23T09:09:30;97909.84;;;11.08;93.59
15694;BME280;7947;48.834;9.132;2023-02-23T09:12:34;97917.34;;;11.11;93.59
15694;BME280;7947;48.834;9.132;2023-02-23T09:15:37;97906.56;;;11.16;94.02
15694;BME280;7947;48.834;9.132;2023-02-23T09:18:40;97908.63;;;11.24;93.76
15694;BME280;7947;48.834;9.132;2023-02-23T09:21:43;97910.41;;;11.34;93.58
15694;BME280;7947;48.834;9.132;2023-02-23T09:24:47;97915.69;;;11.44;92.51
15694;BME280;7947;48.834;9.132;2023-02-23T09:27:51;97910.13;;;11.59;92.60
15694;BME280;7947;48.834;9.132;2023-02-23T09:30:54;97905.13;;;11.76;92.15
15694;BME280;7947;48.834;9.132;2023-02-23T09:33:56;97907.06;;;11.94;91.56
15694;BME280;7947;48.834;9.132;2023-02-23T09:37:00;97912.34;;;11.99;90.38
15694;BME280;7947;48.834;9.132;2023-02-23T09:40:06;97905.31;;;12.03;89.44
15694;BME280;7947;48.834;9.132;2023-02-23T09:43:12;97906.25;;;12.12;88.86
15694;BME280;7947;48.834;9.132;2023-02-23T09:46:23;97908.16;;;12.30;89.20
15694;BME280;7947;48.834;9.132;2023-02-23T09:49:34;97908.00;;;12.40;88.48
15694;BME280;7947;48.834;9.132;2023-02-23T09:52:41;97901.53;;;12.60;87.80
15694;BME280;7947;48.834;9.132;2023-02-23T09:55:47;97905.69;;;12.85;86.92
15694;BME280;7947;48.834;9.132;2023-02-23T09:58:51;97907.28;;;13.04;85.56
15694;BME280;7947;48.834;9.132;2023-02-23T10:01:59;97899.44;;;13.21;85.13
15694;BME280;7947;48.834;9.132;2023-02-23T10:05:08;97903.94;;;13.39;83.57
15694;BME280;7947;48.834;9.132;2023-02-23T10:08:21;97902.56;;;13.69;81.66
15694;BME280;7947;48.834;9.132;2023-02-23T10:11:32;97910.75;;;13.91;80.59
15694;BME280;7947;48.834;9.132;2023-02-23T10:14:55;97902.81;;;14.22;79.14
15694;BME280;7947;48.834;9.132;2023-02-23T10:18:09;97897.28;;;14.40;74.57
15694;BME280;7947;48.834;9.132;2023-02-23T10:21:15;97899.88;;;14.45;76.26
15694;BME280;7947;48.834;9.132;2023-02-23T10:24:21;97907.00;;;14.86;75.43
15694;BME280;7947;48.834;9.132;2023-02-23T10:27:36;97892.69;;;15.07;73.95
15694;BME280;7947;48.834;9.132;2023-02-23T10:30:39;97902.28;;;15.44;72.71
15694;BME280;7947;48.834;9.132;2023-02-23T10:33:42;97899.06;;;15.73;72.02
15694;BME280;7947;48.834;9.132;2023-02-23T10:36:50;97894.91;;;15.67;72.88
15694;BME280;7947;48.834;9.132;2023-02-23T10:39:53;97900.41;;;15.53;71.61
15694;BME280;7947;48.834;9.132;2023-02-23T10:42:59;97896.41;;;15.42;69.89
15694;BME280;7947;48.834;9.132;2023-02-23T10:46:03;97907.91;;;15.03;71.10
15694;BME280;7947;48.834;9.132;2023-02-23T10:49:09;97908.91;;;14.85;73.61
15694;BME280;7947;48.834;9.132;2023-02-23T10:52:25;97912.47;;;14.72;73.13
15694;BME280;7947;48.834;9.132;2023-02-23T10:55:32;97907.84;;;14.51;72.33
15694;BME280;7947;48.834;9.132;2023-02-23T10:58:40;97910.88;;;14.35;73.13
15694;BME280;7947;48.834;9.132;2023-02-23T11:01:46;97909.41;;;14.29;74.43
15694;BME280;7947;48.834;9.132;2023-02-23T11:05:04;97909.41;;;14.29;72.32
15694;BME280;7947;48.834;9.132;2023-02-23T11:08:17;97912.91;;;14.16;73.46
15694;BME280;7947;48.834;9.132;2023-02-23T11:11:23;97904.81;;;14.16;73.81
15694;BME280;7947;48.834;9.132;2023-02-23T11:14:30;97891.03;;;14.18;73.69
15694;BME280;7947;48.834;9.132;2023-02-23T11:17:35;97895.28;;;14.19;73.30
15694;BME280;7947;48.834;9.132;2023-02-23T11:20:40;97895.91;;;14.29;73.12
15694;BME280;7947;48.834;9.132;2023-02-23T11:23:44;97887.16;;;14.46;73.13
15694;BME280;7947;48.834;9.132;2023-02-23T11:26:49;97889.69;;;14.65;72.36
15694;BME280;7947;48.834;9.132;2023-02-23T11:29:55;97884.28;;;14.87;72.03
15694;BME280;7947;48.834;9.132;2023-02-23T11:33:01;97873.97;;;15.11;69.59
15694;BME280;7947;48.834;9.132;2023-02-23T11:36:17;97867.72;;;15.32;67.25
15694;BME280;7947;48.834;9.132;2023-02-23T11:39:27;97862.66;;;15.79;67.00
15694;BME280;7947;48.834;9.132;2023-02-23T11:42:30;97857.44;;;15.99;64.46
15694;BME280;7947;48.834;9.132;2023-02-23T11:45:44;97856.69;;;16.16;62.94
15694;BME280;7947;48.834;9.132;2023-02-23T11:48:49;97852.69;;;16.31;60.32
15694;BME280;7947;48.834;9.132;2023-02-23T11:51:54;97846.50;;;16.64;60.57
15694;BME280;7947;48.834;9.132;2023-02-23T11:55:03;97845.22;;;16.62;58.00
15694;BME280;7947;48.834;9.132;2023-02-23T11:58:20;97844.91;;;16.72;59.50
15694;BME280;7947;48.834;9.132;2023-02-23T12:01:37;97846.34;;;16.69;58.11
15694;BME280;7947;48.834;9.132;2023-02-23T12:04:42;97844.13;;;16.54;57.57
15694;BME280;7947;48.834;9.132;2023-02-23T12:07:53;97842.19;;;16.46;58.60
15694;BME280;7947;48.834;9.132;2023-02-23T12:10:58;97839.97;;;16.31;58.34
15694;BME280;7947;48.834;9.132;2023-02-23T12:14:10;97831.22;;;16.60;58.01
15694;BME280;7947;48.834;9.132;2023-02-23T12:17:18;97835.53;;;17.15;56.80
15694;BME280;7947;48.834;9.132;2023-02-23T12:20:24;97834.44;;;17.63;54.64
15694;BME280;7947;48.834;9.132;2023-02-23T12:23:30;97826.59;;;17.90;53.41
15694;BME280;7947;48.834;9.132;2023-02-23T12:26:41;97824.28;;;17.80;56.73
15694;BME280;7947;48.834;9.132;2023-02-23T12:29:57;97835.13;;;17.51;56.67
15694;BME280;7947;48.834;9.132;2023-02-23T12:33:10;97822.19;;;17.10;59.13
15694;BME280;7947;48.834;9.132;2023-02-23T12:36:19;97831.38;;;16.72;60.68
15694;BME280;7947;48.834;9.132;2023-02-23T12:39:30;97828.97;;;16.36;61.54
15694;BME280;7947;48.834;9.132;2023-02-23T12:42:38;97826.91;;;16.07;62.43
15694;BME280;7947;48.834;9.132;2023-02-23T12:45:44;97826.38;;;15.71;62.85
15694;BME280;7947;48.834;9.132;2023-02-23T12:48:56;97822.31;;;15.43;64.39
15694;BME280;7947;48.834;9.132;2023-02-23T12:52:06;97820.28;;;15.18;65.48
15694;BME280;7947;48.834;9.132;2023-02-23T12:55:12;97829.44;;;15.00;67.12
15694;BME280;7947;48.834;9.132;2023-02-23T12:58:22;97819.97;;;14.89;66.95
15694;BME280;7947;48.834;9.132;2023-02-23T13:01:29;97821.50;;;14.73;67.74
15694;BME280;7947;48.834;9.132;2023-02-23T13:04:47;97825.03;;;14.60;67.73
15694;BME280;7947;48.834;9.132;2023-02-23T13:08:03;97820.59;;;14.55;68.81
15694;BME280;7947;48.834;9.132;2023-02-23T13:11:22;97819.41;;;14.48;68.95
15694;BME280;7947;48.834;9.132;2023-02-23T13:14:35;97827.25;;;14.35;68.47
15694;BME280;7947;48.834;9.132;2023-02-23T13:17:44;97825.88;;;14.24;68.81
15694;BME280;7947;48.834;9.132;2023-02-23T13:20:53;97823.91;;;14.16;68.62
15694;BME280;7947;48.834;9.132;2023-02-23T13:24:00;97826.91;;;14.15;69.93
15694;BME280;7947;48.834;9.132;2023-02-23T13:27:11;97827.81;;;14.10;70.38
15694;BME280;7947;48.834;9.132;2023-02-23T13:30:16;97825.03;;;14.02;70.62
15694;BME280;7947;48.834;9.132;2023-02-23T13:33:25;97820.25;;;13.99;70.24
15694;BME280;7947;48.834;9.132;2023-02-23T13:36:45;97823.38;;;13.92;70.35
15694;BME280;7947;48.834;9.132;2023-02-23T13:40:02;97817.97;;;13.92;70.40
15694;BME280;7947;48.834;9.132;2023-02-23T13:43:14;97821.66;;;13.96;70.12
15694;BME280;7947;48.834;9.132;2023-02-23T13:46:29;97810.28;;;13.99;70.59
15694;BME280;7947;48.834;9.132;2023-02-23T13:49:42;97815.06;;;14.02;70.84
15694;BME280;7947;48.834;9.132;2023-02-23T13:52:51;97812.53;;;14.06;71.26
15694;BME280;7947;48.834;9.132;2023-02-23T13:56:00;97812.84;;;14.04;70.74
15694;BME280;7947;48.834;9.132;2023-02-23T13:59:09;97809.78;;;13.97;70.35
15694;BME280;7947;48.834;9.132;2023-02-23T14:02:29;97818.06;;;14.01;70.72
15694;BME280;7947;48.834;9.132;2023-02-23T14:05:41;97809.78;;;13.97;68.83
15694;BME280;7947;48.834;9.132;2023-02-23T14:08:51;97815.25;;;14.06;70.11
15694;BME280;7947;48.834;9.132;2023-02-23T14:12:02;97815.91;;;14.11;69.67
15694;BME280;7947;48.834;9.132;2023-02-23T14:15:28;97817.88;;;14.19;70.31
15694;BME280;7947;48.834;9.132;2023-02-23T14:19:04;97804.09;;;14.21;68.87
15694;BME280;7947;48.834;9.132;2023-02-23T14:22:11;97802.50;;;14.20;67.46
15694;BME280;7947;48.834;9.132;2023-02-23T14:25:46;97809.53;;;14.07;67.17
15694;BME280;7947;48.834;9.132;2023-02-23T14:29:10;97810.97;;;14.05;67.05
15694;BME280;7947;48.834;9.132;2023-02-23T14:32:29;97805.84;;;14.03;68.29
15694;BME280;7947;48.834;9.132;2023-02-23T14:35:41;97809.97;;;14.01;68.36
15694;BME280;7947;48.834;9.132;2023-02-23T14:38:44;97811.16;;;14.08;69.05
15694;BME280;7947;48.834;9.132;2023-02-23T14:41:52;97815.13;;;14.11;68.84
15694;BME280;7947;48.834;9.132;2023-02-23T14:44:57;97812.13;;;14.12;68.88
15694;BME280;7947;48.834;9.132;2023-02-23T14:48:05;97806.25;;;14.10;68.37
15694;BME280;7947;48.834;9.132;2023-02-23T14:51:12;97805.75;;;14.08;69.24
15694;BME280;7947;48.834;9.132;2023-02-23T14:54:23;97810.03;;;14.09;69.96
15694;BME280;7947;48.834;9.132;2023-02-23T14:57:28;97805.63;;;14.13;69.69
15694;BME280;7947;48.834;9.132;2023-02-23T15:00:32;97803.56;;;14.10;70.01
15694;BME280;7947;48.834;9.132;2023-02-23T15:04:07;97802.69;;;14.01;70.17
15694;BME280;7947;48.834;9.132;2023-02-23T15:07:13;97805.38;;;14.01;69.87
15694;BME280;7947;48.834;9.132;2023-02-23T15:10:23;97803.47;;;14.02;71.92
15694;BME280;7947;48.834;9.132;2023-02-23T15:13:30;97808.63;;;13.90;73.75
15694;BME280;7947;48.834;9.132;2023-02-23T15:16:35;97811.41;;;13.85;75.49
15694;BME280;7947;48.834;9.132;2023-02-23T15:19:38;97811.94;;;13.73;76.43
15694;BME280;7947;48.834;9.132;2023-02-23T15:22:42;97809.75;;;13.62;76.28
15694;BME280;7947;48.834;9.132;2023-02-23T15:25:47;97813.06;;;13.58;77.60
15694;BME280;7947;48.834;9.132;2023-02-23T15:28:53;97818.97;;;13.47;78.94
15694;BME280;7947;48.834;9.132;2023-02-23T15:32:10;97819.53;;;13.44;78.63
15694;BME280;7947;48.834;9.132;2023-02-23T15:35:15;97815.03;;;13.39;78.54
15694;BME280;7947;48.834;9.132;2023-02-23T15:38:22;97806.69;;;13.41;78.18
15694;BME280;7947;48.834;9.132;2023-02-23T15:41:44;97815.34;;;13.38;78.31
15694;BME280;7947;48.834;9.132;2023-02-23T15:45:01;97813.84;;;13.32;77.98
15694;BME280;7947;48.834;9.132;2023-02-23T15:48:07;97816.84;;;13.30;78.09
15694;BME280;7947;48.834;9.132;2023-02-23T15:51:21;97820.25;;;13.22;78.27
15694;BME280;7947;48.834;9.132;2023-02-23T15:54:28;97818.66;;;13.21;78.29
15694;BME280;7947;48.834;9.132;2023-02-23T15:57:44;97820.53;;;13.21;77.84
15694;BME280;7947;48.834;9.132;2023-02-23T16:00:54;97831.94;;;13.18;77.64
15694;BME280;7947;48.834;9.132;2023-02-23T16:04:00;97831.81;;;13.09;78.83
15694;BME280;7947;48.834;9.132;2023-02-23T16:07:14;97832.63;;;13.10;79.49
15694;BME280;7947;48.834;9.132;2023-02-23T16:10:20;97827.38;;;13.00;79.42
15694;BME280;7947;48.834;9.132;2023-02-23T16:13:23;97822.88;;;12.95;78.86
15694;BME280;7947;48.834;9.132;2023-02-23T16:16:29;97822.97;;;12.90;79.17
15694;BME280;7947;48.834;9.132;2023-02-23T16:19:35;97829.53;;;12.84;79.79
15694;BME280;7947;48.834;9.132;2023-02-23T16:22:42;97823.75;;;12.77;79.47
15694;BME280;7947;48.834;9.132;2023-02-23T16:25:51;97827.53;;;12.76;80.69
15694;BME280;7947;48.834;9.132;2023-02-23T16:28:56;97827.84;;;12.75;80.81
15694;BME280;7947;48.834;9.132;2023-02-23T16:32:01;97828.13;;;12.73;80.32
15694;BME280;7947;48.834;9.132;2023-02-23T16:35:14;97830.03;;;12.73;80.97
15694;BME280;7947;48.834;9.132;2023-02-23T16:38:22;97827.22;;;12.78;80.88
15694;BME280;7947;48.834;9.132;2023-02-23T16:41:28;97829.91;;;12.78;81.05
15694;BME280;7947;48.834;9.132;2023-02-23T16:44:31;97820.88;;;12.74;81.69
15694;BME280;7947;48.834;9.132;2023-02-23T16:47:46;97829.09;;;12.63;81.75
15694;BME280;7947;48.834;9.132;2023-02-23T16:50:49;97826.28;;;12.55;82.90
15694;BME280;7947;48.834;9.132;2023-02-23T16:53:52;97828.47;;;12.53;83.04
15694;BME280;7947;48.834;9.132;2023-02-23T16:56:55;97827.16;;;12.50;83.98
15694;BME280;7947;48.834;9.132;2023-02-23T16:59:58;97837.00;;;12.41;84.28
15694;BME280;7947;48.834;9.132;2023-02-23T17:03:02;97827.91;;;12.37;84.38
15694;BME280;7947;48.834;9.132;2023-02-23T17:06:07;97830.03;;;12.40;85.13